createdAt,value
2017-12-27T00:00:25.532Z,-0.39
2017-12-27T00:01:25.212Z,-0.37
2017-12-27T00:02:25.112Z,-0.39
2017-12-27T00:03:25.195Z,-0.39
2017-12-27T00:04:25.177Z,-0.31
2017-12-27T00:05:25.184Z,-0.35
2017-12-27T00:06:25.150Z,-0.32
2017-12-27T00:07:25.247Z,-0.35
2017-12-27T00:08:25.263Z,-0.37
2017-12-27T00:09:26.014Z,-0.36
2017-12-27T00:10:25.194Z,-0.35
2017-12-27T00:11:25.094Z,-0.36
2017-12-27T00:12:25.088Z,-0.35
2017-12-27T00:13:25.241Z,-0.39
2017-12-27T00:14:25.248Z,-0.4
2017-12-27T00:15:25.299Z,-0.33
2017-12-27T00:16:25.219Z,-0.37
2017-12-27T00:17:25.112Z,-0.37
2017-12-27T00:18:25.054Z,-0.36
2017-12-27T00:19:25.190Z,-0.36
2017-12-27T00:20:25.058Z,-0.36
2017-12-27T00:21:25.372Z,-0.36
2017-12-27T00:22:25.108Z,-0.34
2017-12-27T00:23:25.154Z,-0.34
2017-12-27T00:24:25.191Z,-0.33
2017-12-27T00:25:25.284Z,-0.33
2017-12-27T00:26:25.507Z,-0.31
2017-12-27T00:27:25.231Z,-0.35
2017-12-27T00:28:25.307Z,-0.36
2017-12-27T00:29:25.259Z,-0.34
2017-12-27T00:30:25.224Z,-0.34
2017-12-27T00:31:25.275Z,-0.31
2017-12-27T00:32:25.074Z,-0.34
2017-12-27T00:33:25.108Z,-0.3
2017-12-27T00:34:25.110Z,-0.35
2017-12-27T00:35:25.234Z,-0.35
2017-12-27T00:36:25.296Z,-0.3
2017-12-27T00:37:25.293Z,-0.35
2017-12-27T00:38:25.119Z,-0.34
2017-12-27T00:39:35.346Z,-0.32
2017-12-27T00:40:25.438Z,-0.32
2017-12-27T00:41:25.214Z,-0.3
2017-12-27T00:42:25.275Z,-0.31
2017-12-27T00:43:31.705Z,-0.31
2017-12-27T00:44:25.583Z,-0.32
2017-12-27T00:45:26.909Z,-0.33
2017-12-27T00:46:26.053Z,-0.32
2017-12-27T00:47:25.214Z,-0.34
2017-12-27T00:48:25.394Z,-0.29
2017-12-27T00:49:25.430Z,-0.34
2017-12-27T00:50:25.137Z,-0.3
2017-12-27T00:51:25.190Z,-0.27
2017-12-27T00:52:25.174Z,-0.3
2017-12-27T00:53:27.559Z,-0.28
2017-12-27T00:54:25.432Z,-0.33
2017-12-27T00:55:25.323Z,-0.35
2017-12-27T00:56:25.337Z,-0.33
2017-12-27T00:57:25.205Z,-0.31
2017-12-27T00:58:25.573Z,-0.31
2017-12-27T00:59:26.629Z,-0.25
2017-12-27T01:00:25.346Z,-0.27
2017-12-27T01:01:25.149Z,-0.31
2017-12-27T01:02:26.691Z,-0.27
2017-12-27T01:03:36.875Z,-0.28
2017-12-27T01:04:25.886Z,-0.29
2017-12-27T01:05:25.876Z,-0.29
2017-12-27T01:06:30.468Z,-0.3
2017-12-27T01:07:25.134Z,-0.29
2017-12-27T01:08:37.495Z,-0.29
2017-12-27T01:09:26.433Z,-0.32
2017-12-27T01:10:26.156Z,-0.34
2017-12-27T01:11:25.285Z,-0.33
2017-12-27T01:12:25.555Z,-0.32
2017-12-27T01:13:26.416Z,-0.32
2017-12-27T01:14:26.419Z,-0.28
2017-12-27T01:15:25.534Z,-0.29
2017-12-27T01:16:25.759Z,-0.34
2017-12-27T01:17:25.567Z,-0.26
2017-12-27T01:18:28.977Z,-0.32
2017-12-27T01:19:26.659Z,-0.33
2017-12-27T01:20:25.290Z,-0.35
2017-12-27T01:21:25.205Z,-0.33
2017-12-27T01:22:25.380Z,-0.35
2017-12-27T01:23:25.561Z,-0.31
2017-12-27T01:24:25.228Z,-0.29
2017-12-27T01:25:25.326Z,-0.25
2017-12-27T01:26:25.295Z,-0.26
2017-12-27T01:27:25.196Z,-0.33
2017-12-27T01:28:25.437Z,-0.3
2017-12-27T01:29:30.802Z,-0.34
2017-12-27T01:30:25.328Z,-0.35
2017-12-27T01:31:25.493Z,-0.32
2017-12-27T01:34:25.551Z,-0.32
2017-12-27T01:35:25.733Z,-0.35
2017-12-27T01:36:25.319Z,-0.36
2017-12-27T01:37:25.304Z,-0.36
2017-12-27T01:38:25.320Z,-0.36
2017-12-27T01:39:25.293Z,-0.33
2017-12-27T01:40:25.256Z,-0.39
2017-12-27T01:41:25.373Z,-0.36
2017-12-27T01:42:25.280Z,-0.38
2017-12-27T01:43:25.489Z,-0.44
2017-12-27T01:44:25.290Z,-0.43
2017-12-27T01:45:25.362Z,-0.44
2017-12-27T01:46:25.357Z,-0.44
2017-12-27T01:47:25.327Z,-0.45
2017-12-27T01:48:25.807Z,-0.41
2017-12-27T01:49:25.711Z,-0.49
2017-12-27T01:50:25.399Z,-0.42
2017-12-27T01:51:25.949Z,-0.42
2017-12-27T01:52:26.293Z,-0.44
2017-12-27T01:53:25.350Z,-0.45
2017-12-27T01:54:25.936Z,-0.42
2017-12-27T01:55:25.266Z,-0.44
2017-12-27T01:56:26.574Z,-0.48
2017-12-27T01:57:25.405Z,-0.53
2017-12-27T01:58:25.305Z,-0.51
2017-12-27T01:59:27.041Z,-0.5
2017-12-27T02:00:25.171Z,-0.53
2017-12-27T02:01:25.338Z,-0.53
2017-12-27T02:02:25.347Z,-0.54
2017-12-27T02:03:25.599Z,-0.54
2017-12-27T02:04:25.431Z,-0.54
2017-12-27T02:05:26.474Z,-0.55
2017-12-27T02:06:25.310Z,-0.54
2017-12-27T02:07:25.139Z,-0.57
2017-12-27T02:08:25.471Z,-0.61
2017-12-27T02:09:25.318Z,-0.6
2017-12-27T02:10:26.206Z,-0.6
2017-12-27T02:11:25.246Z,-0.6
2017-12-27T02:12:28.038Z,-0.64
2017-12-27T02:13:26.278Z,-0.68
2017-12-27T02:14:27.169Z,-0.63
2017-12-27T02:15:25.466Z,-0.7
2017-12-27T02:16:25.232Z,-0.66
2017-12-27T02:17:28.068Z,-0.68
2017-12-27T02:18:25.327Z,-0.73
2017-12-27T02:19:25.359Z,-0.7
2017-12-27T02:20:25.247Z,-0.71
2017-12-27T02:21:28.068Z,-0.77
2017-12-27T02:22:28.609Z,-0.76
2017-12-27T02:23:25.380Z,-0.75
2017-12-27T02:24:25.172Z,-0.78
2017-12-27T02:25:25.331Z,-0.77
2017-12-27T02:26:25.965Z,-0.75
2017-12-27T02:27:26.662Z,-0.73
2017-12-27T02:28:26.757Z,-0.74
2017-12-27T02:29:27.752Z,-0.77
2017-12-27T02:30:25.804Z,-0.72
2017-12-27T02:31:26.410Z,-0.8
2017-12-27T02:32:25.427Z,-0.79
2017-12-27T02:33:25.289Z,-0.77
2017-12-27T02:34:25.336Z,-0.73
2017-12-27T02:35:25.426Z,-0.77
2017-12-27T02:36:25.339Z,-0.76
2017-12-27T02:37:25.647Z,-0.74
2017-12-27T02:38:25.264Z,-0.75
2017-12-27T02:39:26.689Z,-0.73
2017-12-27T02:40:25.876Z,-0.78
2017-12-27T02:41:25.264Z,-0.75
2017-12-27T02:42:26.644Z,-0.74
2017-12-27T02:43:26.231Z,-0.8
2017-12-27T02:44:25.703Z,-0.81
2017-12-27T02:45:25.294Z,-0.8
2017-12-27T02:46:25.298Z,-0.78
2017-12-27T02:47:25.310Z,-0.77
2017-12-27T02:48:25.133Z,-0.79
2017-12-27T02:49:26.416Z,-0.76
2017-12-27T02:50:26.273Z,-0.79
2017-12-27T02:51:26.530Z,-0.81
2017-12-27T02:52:25.327Z,-0.81
2017-12-27T02:53:27.878Z,-0.79
2017-12-27T02:54:26.481Z,-0.75
2017-12-27T02:55:25.375Z,-0.8
2017-12-27T02:56:25.237Z,-0.82
2017-12-27T02:57:25.357Z,-0.81
2017-12-27T02:58:26.259Z,-0.77
2017-12-27T02:59:27.161Z,-0.77
2017-12-27T03:00:26.357Z,-0.75
2017-12-27T03:01:29.546Z,-0.74
2017-12-27T03:02:25.339Z,-0.73
2017-12-27T03:03:25.372Z,-0.76
2017-12-27T03:04:25.431Z,-0.69
2017-12-27T03:05:25.624Z,-0.71
2017-12-27T03:06:28.226Z,-0.75
2017-12-27T03:07:25.325Z,-0.77
2017-12-27T03:08:25.387Z,-0.77
2017-12-27T03:09:25.354Z,-0.79
2017-12-27T03:10:25.309Z,-0.73
2017-12-27T03:11:28.207Z,-0.81
2017-12-27T03:12:26.373Z,-0.8
2017-12-27T03:13:25.305Z,-0.77
2017-12-27T03:14:25.233Z,-0.78
2017-12-27T03:15:25.304Z,-0.78
2017-12-27T03:16:25.371Z,-0.79
2017-12-27T03:17:25.413Z,-0.74
2017-12-27T03:18:30.023Z,-0.75
2017-12-27T03:20:25.254Z,-0.79
2017-12-27T03:21:25.500Z,-0.75
2017-12-27T03:22:27.222Z,-0.79
2017-12-27T03:23:28.243Z,-0.75
2017-12-27T03:24:26.380Z,-0.81
2017-12-27T03:25:25.579Z,-0.74
2017-12-27T03:26:26.836Z,-0.74
2017-12-27T03:27:28.140Z,-0.73
2017-12-27T03:28:27.779Z,-0.78
2017-12-27T03:29:25.845Z,-0.79
2017-12-27T03:30:25.352Z,-0.76
2017-12-27T03:31:25.449Z,-0.74
2017-12-27T03:32:26.188Z,-0.76
2017-12-27T03:33:26.199Z,-0.73
2017-12-27T03:34:25.964Z,-0.71
2017-12-27T03:35:25.446Z,-0.72
2017-12-27T03:36:26.013Z,-0.73
2017-12-27T03:37:25.402Z,-0.7
2017-12-27T03:38:28.008Z,-0.71
2017-12-27T03:39:27.480Z,-0.65
2017-12-27T03:40:25.894Z,-0.67
2017-12-27T03:41:26.940Z,-0.63
2017-12-27T03:42:26.721Z,-0.72
2017-12-27T03:43:26.482Z,-0.66
2017-12-27T03:44:27.500Z,-0.65
2017-12-27T03:52:10.054Z,-0.61
2017-12-27T03:53:25.790Z,-0.59
2017-12-27T03:54:41.770Z,-0.56
2017-12-27T04:02:24.800Z,-0.62
2017-12-27T04:03:22.690Z,-0.6
2017-12-27T04:04:22.551Z,-0.6
2017-12-27T04:05:22.730Z,-0.62
2017-12-27T04:06:22.784Z,-0.57
2017-12-27T04:07:22.686Z,-0.57
2017-12-27T04:08:22.635Z,-0.61
2017-12-27T04:09:22.576Z,-0.62
2017-12-27T04:10:22.733Z,-0.58
2017-12-27T04:11:22.782Z,-0.55
2017-12-27T04:12:22.931Z,-0.59
2017-12-27T04:13:22.551Z,-0.58
2017-12-27T04:14:22.414Z,-0.55
2017-12-27T04:15:23.052Z,-0.57
2017-12-27T04:16:22.546Z,-0.53
2017-12-27T04:17:22.221Z,-0.57
2017-12-27T04:18:22.290Z,-0.51
2017-12-27T04:19:22.622Z,-0.51
2017-12-27T04:20:22.174Z,-0.49
2017-12-27T04:21:22.666Z,-0.51
2017-12-27T04:22:23.234Z,-0.53
2017-12-27T04:23:23.028Z,-0.49
2017-12-27T04:24:22.208Z,-0.49
2017-12-27T04:25:22.739Z,-0.52
2017-12-27T04:26:22.417Z,-0.48
2017-12-27T04:27:22.393Z,-0.44
2017-12-27T04:28:23.152Z,-0.47
2017-12-27T04:29:22.631Z,-0.44
2017-12-27T04:30:22.446Z,-0.43
2017-12-27T04:31:22.649Z,-0.46
2017-12-27T04:32:22.677Z,-0.44
2017-12-27T04:33:22.777Z,-0.37
2017-12-27T04:34:22.870Z,-0.39
2017-12-27T04:35:22.838Z,-0.45
2017-12-27T04:36:22.847Z,-0.42
2017-12-27T04:37:22.203Z,-0.43
2017-12-27T04:38:22.900Z,-0.46
2017-12-27T04:39:23.125Z,-0.41
2017-12-27T04:40:22.871Z,-0.41
2017-12-27T04:41:22.865Z,-0.44
2017-12-27T04:42:22.794Z,-0.46
2017-12-27T04:43:22.217Z,-0.46
2017-12-27T04:44:22.633Z,-0.44
2017-12-27T04:45:22.664Z,-0.46
2017-12-27T04:46:22.792Z,-0.43
2017-12-27T04:47:22.666Z,-0.42
2017-12-27T04:48:22.775Z,-0.43
2017-12-27T04:49:22.677Z,-0.43
2017-12-27T04:50:22.686Z,-0.4
2017-12-27T04:51:22.782Z,-0.41
2017-12-27T04:52:22.865Z,-0.43
2017-12-27T04:53:22.822Z,-0.4
2017-12-27T04:54:22.216Z,-0.44
2017-12-27T04:55:22.828Z,-0.42
2017-12-27T04:56:22.715Z,-0.4
2017-12-27T04:57:22.893Z,-0.41
2017-12-27T04:58:22.887Z,-0.4
2017-12-27T04:59:22.253Z,-0.36
2017-12-27T05:00:22.859Z,-0.37
2017-12-27T05:01:22.665Z,-0.38
2017-12-27T05:02:22.726Z,-0.37
2017-12-27T05:03:22.821Z,-0.26
2017-12-27T05:04:22.805Z,-0.35
2017-12-27T05:05:22.235Z,-0.34
2017-12-27T05:06:22.297Z,-0.31
2017-12-27T05:07:22.849Z,-0.33
2017-12-27T05:08:22.753Z,-0.31
2017-12-27T05:09:22.819Z,-0.36
2017-12-27T05:10:23.172Z,-0.29
2017-12-27T05:11:22.837Z,-0.29
2017-12-27T05:12:23.001Z,-0.3
2017-12-27T05:13:22.873Z,-0.31
2017-12-27T05:14:22.797Z,-0.26
2017-12-27T05:15:22.917Z,-0.29
2017-12-27T05:16:22.717Z,-0.29
2017-12-27T05:17:22.772Z,-0.24
2017-12-27T05:18:22.841Z,-0.26
2017-12-27T05:19:22.684Z,-0.21
2017-12-27T05:20:22.634Z,-0.22
2017-12-27T05:21:23.005Z,-0.2
2017-12-27T05:22:22.781Z,-0.23
2017-12-27T05:23:22.495Z,-0.21
2017-12-27T05:24:22.715Z,-0.19
2017-12-27T05:25:22.786Z,-0.2
2017-12-27T05:26:22.936Z,-0.21
2017-12-27T05:27:22.558Z,-0.2
2017-12-27T05:28:22.805Z,-0.21
2017-12-27T05:29:22.432Z,-0.16
2017-12-27T05:30:22.936Z,-0.15
2017-12-27T05:31:22.481Z,-0.18
2017-12-27T05:32:22.871Z,-0.21
2017-12-27T05:33:22.767Z,-0.2
2017-12-27T05:34:22.843Z,-0.25
2017-12-27T05:35:22.794Z,-0.24
2017-12-27T05:36:22.905Z,-0.21
2017-12-27T05:37:22.922Z,-0.25
2017-12-27T05:38:22.879Z,-0.22
2017-12-27T05:39:22.780Z,-0.18
2017-12-27T05:40:22.827Z,-0.19
2017-12-27T05:41:22.748Z,-0.19
2017-12-27T05:42:22.712Z,-0.2
2017-12-27T05:43:22.891Z,-0.19
2017-12-27T05:44:22.886Z,-0.19
2017-12-27T05:45:22.787Z,-0.15
2017-12-27T05:46:22.764Z,-0.14
2017-12-27T05:47:22.933Z,-0.19
2017-12-27T05:48:22.960Z,-0.19
2017-12-27T05:49:22.833Z,-0.23
2017-12-27T05:50:22.849Z,-0.16
2017-12-27T05:51:22.800Z,-0.16
2017-12-27T05:52:23.208Z,-0.16
2017-12-27T05:53:22.833Z,-0.13
2017-12-27T05:54:23.154Z,-0.13
2017-12-27T05:55:22.709Z,-0.07
2017-12-27T05:56:22.256Z,-0.1
2017-12-27T05:57:22.857Z,-0.12
2017-12-27T05:58:22.711Z,-0.08
2017-12-27T05:59:22.497Z,-0.11
2017-12-27T06:00:22.931Z,-0.09
2017-12-27T06:01:22.920Z,-0.06
2017-12-27T06:02:22.789Z,-0.05
2017-12-27T06:03:22.898Z,-0.13
2017-12-27T06:04:23.056Z,-0.09
2017-12-27T06:05:22.806Z,-0.08
2017-12-27T06:06:23.008Z,-0.07
2017-12-27T06:07:22.799Z,-0.06
2017-12-27T06:08:22.554Z,-0.1
2017-12-27T06:09:22.875Z,-0.04
2017-12-27T06:10:22.857Z,-0.03
2017-12-27T06:11:23.711Z,-0.04
2017-12-27T06:12:23.175Z,-0.03
2017-12-27T06:13:22.850Z,0.02
2017-12-27T06:14:22.832Z,0
2017-12-27T06:15:23.275Z,0.02
2017-12-27T06:16:22.727Z,0.03
2017-12-27T06:17:22.806Z,0.09
2017-12-27T06:18:22.961Z,0.08
2017-12-27T06:19:22.802Z,0.07
2017-12-27T06:20:23.004Z,0.16
2017-12-27T06:21:22.940Z,0.16
2017-12-27T06:22:23.283Z,0.07
2017-12-27T06:23:22.909Z,0.21
2017-12-27T06:24:23.186Z,0.15
2017-12-27T06:25:23.079Z,0.13
2017-12-27T06:26:22.826Z,0.15
2017-12-27T06:27:22.969Z,0.18
2017-12-27T06:28:22.910Z,0.23
2017-12-27T06:29:22.796Z,0.28
2017-12-27T06:30:23.094Z,0.3
2017-12-27T06:31:22.885Z,0.35
2017-12-27T06:32:22.854Z,0.33
2017-12-27T06:33:23.051Z,0.34
2017-12-27T06:34:22.923Z,0.49
2017-12-27T06:35:22.465Z,0.5
2017-12-27T06:36:22.982Z,0.59
2017-12-27T06:37:22.805Z,0.58
2017-12-27T06:38:22.955Z,0.59
2017-12-27T06:39:22.798Z,0.51
2017-12-27T06:40:23.025Z,0.63
2017-12-27T06:41:22.845Z,0.64
2017-12-27T06:42:22.671Z,0.64
2017-12-27T06:43:23.073Z,0.56
2017-12-27T06:44:23.009Z,0.65
2017-12-27T06:45:23.095Z,0.69
2017-12-27T06:46:23.066Z,0.8
2017-12-27T06:47:22.944Z,0.64
2017-12-27T06:48:23.007Z,0.66
2017-12-27T06:49:22.604Z,0.55
2017-12-27T06:50:22.934Z,0.77
2017-12-27T06:51:23.297Z,0.69
2017-12-27T06:52:23.002Z,0.57
2017-12-27T06:53:23.160Z,0.56
2017-12-27T06:54:23.140Z,0.68
2017-12-27T06:55:22.571Z,0.57
2017-12-27T06:56:23.077Z,0.68
2017-12-27T06:57:23.183Z,0.7
2017-12-27T06:58:23.383Z,0.77
2017-12-27T06:59:22.966Z,0.85
2017-12-27T07:00:22.900Z,0.73
2017-12-27T07:01:22.900Z,0.77
2017-12-27T07:02:23.047Z,0.81
2017-12-27T07:03:23.192Z,0.74
2017-12-27T07:04:22.925Z,0.84
2017-12-27T07:05:23.136Z,0.72
2017-12-27T07:06:23.325Z,0.81
2017-12-27T07:07:23.100Z,0.77
2017-12-27T07:08:22.915Z,0.81
2017-12-27T07:09:23.140Z,0.82
2017-12-27T07:10:23.143Z,0.75
2017-12-27T07:11:23.009Z,0.82
2017-12-27T07:12:23.219Z,0.88
2017-12-27T07:13:23.246Z,0.83
2017-12-27T07:14:23.178Z,0.79
2017-12-27T07:15:23.087Z,0.79
2017-12-27T07:16:23.175Z,0.88
2017-12-27T07:17:22.975Z,0.92
2017-12-27T07:18:23.086Z,0.96
2017-12-27T07:19:22.864Z,0.79
2017-12-27T07:20:22.798Z,0.84
2017-12-27T07:21:22.593Z,0.87
2017-12-27T07:22:23.110Z,0.81
2017-12-27T07:23:22.867Z,0.86
2017-12-27T07:24:22.861Z,0.93
2017-12-27T07:25:22.641Z,0.93
2017-12-27T07:26:22.933Z,0.76
2017-12-27T07:27:22.963Z,0.91
2017-12-27T07:28:22.580Z,0.9
2017-12-27T07:29:23.642Z,0.91
2017-12-27T07:30:22.887Z,0.94
2017-12-27T07:31:23.008Z,0.91
2017-12-27T07:32:22.827Z,0.94
2017-12-27T07:33:23.067Z,0.9
2017-12-27T07:34:23.116Z,0.82
2017-12-27T07:35:23.308Z,0.93
2017-12-27T07:36:23.150Z,1.02
2017-12-27T07:37:23.102Z,0.93
2017-12-27T07:38:23.228Z,0.92
2017-12-27T07:39:22.852Z,0.91
2017-12-27T07:40:22.951Z,0.93
2017-12-27T07:41:23.024Z,0.9
2017-12-27T07:42:22.948Z,0.92
2017-12-27T07:43:23.024Z,0.89
2017-12-27T07:44:22.983Z,0.93
2017-12-27T07:45:22.997Z,0.88
2017-12-27T07:46:23.115Z,0.94
2017-12-27T07:47:23.004Z,0.83
2017-12-27T07:48:22.973Z,0.95
2017-12-27T07:49:22.877Z,0.9
2017-12-27T07:50:23.279Z,0.89
2017-12-27T07:51:23.005Z,0.84
2017-12-27T07:52:23.262Z,0.83
2017-12-27T07:53:23.074Z,0.79
2017-12-27T07:54:22.803Z,0.91
2017-12-27T07:55:22.966Z,0.9
2017-12-27T07:56:22.945Z,0.96
2017-12-27T07:57:22.977Z,0.85
2017-12-27T07:58:22.962Z,0.84
2017-12-27T07:59:23.021Z,0.93
2017-12-27T08:00:23.116Z,0.88
2017-12-27T08:01:22.856Z,0.94
2017-12-27T08:02:23.250Z,0.96
2017-12-27T08:03:22.890Z,0.91
2017-12-27T08:04:22.912Z,0.93
2017-12-27T08:05:22.912Z,0.88
2017-12-27T08:06:23.219Z,0.9
2017-12-27T08:07:23.308Z,0.98
2017-12-27T08:08:23.559Z,0.92
2017-12-27T08:09:23.027Z,0.88
2017-12-27T08:10:23.074Z,0.89
2017-12-27T08:11:23.295Z,0.89
2017-12-27T08:12:22.922Z,0.84
2017-12-27T08:13:23.364Z,0.8
2017-12-27T08:14:22.880Z,0.95
2017-12-27T08:15:23.134Z,0.87
2017-12-27T08:16:22.998Z,0.94
2017-12-27T08:17:22.894Z,0.92
2017-12-27T08:18:23.087Z,0.91
2017-12-27T08:19:23.004Z,0.9
2017-12-27T08:20:23.141Z,0.95
2017-12-27T08:21:22.927Z,0.87
2017-12-27T08:22:22.593Z,0.94
2017-12-27T08:23:23.033Z,1.02
2017-12-27T08:24:22.970Z,1.09
2017-12-27T08:25:23.263Z,0.95
2017-12-27T08:26:23.309Z,1.04
2017-12-27T08:27:22.941Z,1.05
2017-12-27T08:28:23.089Z,1.14
2017-12-27T08:29:23.167Z,1.06
2017-12-27T08:32:37.141Z,1.1
2017-12-27T08:33:23.092Z,1.01
2017-12-27T08:34:23.228Z,0.98
2017-12-27T08:35:23.067Z,1.16
2017-12-27T08:36:21.967Z,1.03
2017-12-27T08:37:22.174Z,1.05
2017-12-27T08:38:22.369Z,1.12
2017-12-27T08:39:22.044Z,1.12
2017-12-27T08:40:21.918Z,1.08
2017-12-27T08:41:22.103Z,1.12
2017-12-27T08:42:22.172Z,1.1
2017-12-27T08:43:22.700Z,1.12
2017-12-27T08:44:22.108Z,1.1
2017-12-27T08:45:22.362Z,1.1
2017-12-27T08:46:22.219Z,1.09
2017-12-27T08:47:22.182Z,1
2017-12-27T08:48:21.985Z,1.16
2017-12-27T08:49:21.911Z,1.15
2017-12-27T08:50:22.117Z,1.09
2017-12-27T08:51:22.028Z,1.17
2017-12-27T08:52:22.802Z,1.12
2017-12-27T08:53:21.847Z,1.2
2017-12-27T08:54:21.883Z,1.13
2017-12-27T08:55:22.319Z,1.22
2017-12-27T08:56:21.958Z,1.15
2017-12-27T08:57:21.919Z,1.24
2017-12-27T08:58:22.069Z,1.22
2017-12-27T08:59:22.064Z,1.21
2017-12-27T09:00:22.051Z,1.18
2017-12-27T09:01:21.937Z,1.28
2017-12-27T09:02:21.959Z,1.24
2017-12-27T09:03:22.157Z,1.29
2017-12-27T09:04:22.143Z,1.23
2017-12-27T09:05:22.224Z,1.24
2017-12-27T09:06:22.056Z,1.4
2017-12-27T09:07:22.087Z,1.35
2017-12-27T09:08:22.148Z,1.3
2017-12-27T09:09:22.105Z,1.31
2017-12-27T09:10:22.018Z,1.22
2017-12-27T09:11:22.041Z,1.41
2017-12-27T09:12:22.098Z,1.43
2017-12-27T09:13:22.159Z,1.38
2017-12-27T09:14:21.933Z,1.38
2017-12-27T09:15:22.185Z,1.37
2017-12-27T09:16:22.092Z,1.35
2017-12-27T09:17:22.073Z,1.39
2017-12-27T09:18:21.971Z,1.33
2017-12-27T09:19:22.219Z,1.38
2017-12-27T09:20:22.552Z,1.31
2017-12-27T09:21:22.056Z,1.37
2017-12-27T09:22:21.948Z,1.3
2017-12-27T09:23:21.982Z,1.33
2017-12-27T09:24:22.086Z,1.32
2017-12-27T09:25:21.989Z,1.3
2017-12-27T09:26:22.235Z,1.33
2017-12-27T09:27:21.999Z,1.4
2017-12-27T09:28:21.936Z,1.34
2017-12-27T09:29:22.061Z,1.35
2017-12-27T09:30:22.207Z,1.38
2017-12-27T09:31:22.046Z,1.35
2017-12-27T09:32:22.098Z,1.42
2017-12-27T09:33:22.055Z,1.39
2017-12-27T09:34:21.969Z,1.41
2017-12-27T09:35:22.045Z,1.35
2017-12-27T09:36:22.169Z,1.4
2017-12-27T09:37:22.022Z,1.41
2017-12-27T09:38:22.015Z,1.38
2017-12-27T09:39:22.088Z,1.52
2017-12-27T09:40:22.031Z,1.55
2017-12-27T09:41:22.059Z,1.53
2017-12-27T09:42:22.097Z,1.54
2017-12-27T09:43:22.073Z,1.59
2017-12-27T09:44:22.040Z,1.53
2017-12-27T09:45:21.941Z,1.66
2017-12-27T09:46:22.059Z,1.67
2017-12-27T09:47:22.156Z,1.64
2017-12-27T09:48:22.158Z,1.57
2017-12-27T09:49:21.862Z,1.67
2017-12-27T09:50:22.083Z,1.66
2017-12-27T09:51:22.026Z,1.79
2017-12-27T09:52:22.084Z,1.63
2017-12-27T09:53:22.210Z,1.53
2017-12-27T09:54:22.090Z,1.67
2017-12-27T09:55:22.198Z,1.65
2017-12-27T09:56:21.914Z,1.55
2017-12-27T09:57:22.096Z,1.7
2017-12-27T09:58:21.961Z,1.74
2017-12-27T09:59:21.998Z,1.69
2017-12-27T10:00:22.059Z,1.72
2017-12-27T10:01:21.938Z,1.72
2017-12-27T10:02:22.133Z,1.72
2017-12-27T10:03:22.062Z,1.79
2017-12-27T10:04:21.867Z,1.81
2017-12-27T10:05:21.895Z,1.86
2017-12-27T10:06:22.007Z,1.85
2017-12-27T10:07:21.949Z,1.91
2017-12-27T10:08:22.035Z,1.9
2017-12-27T10:09:22.017Z,1.97
2017-12-27T10:10:21.998Z,1.85
2017-12-27T10:11:21.998Z,1.97
2017-12-27T10:12:22.005Z,2.01
2017-12-27T10:13:22.148Z,1.84
2017-12-27T10:14:22.048Z,1.9
2017-12-27T10:15:22.023Z,1.91
2017-12-27T10:16:22.000Z,1.99
2017-12-27T10:17:21.993Z,2.04
2017-12-27T10:18:22.128Z,1.89
2017-12-27T10:19:22.138Z,1.99
2017-12-27T10:20:22.029Z,1.98
2017-12-27T10:21:21.949Z,1.96
2017-12-27T10:22:22.059Z,2.05
2017-12-27T10:23:22.040Z,1.92
2017-12-27T10:24:22.014Z,1.93
2017-12-27T10:25:22.120Z,1.88
2017-12-27T10:26:21.980Z,1.95
2017-12-27T10:27:22.054Z,1.91
2017-12-27T10:28:22.055Z,1.96
2017-12-27T10:29:22.059Z,1.98
2017-12-27T10:30:22.255Z,2
2017-12-27T10:31:22.004Z,1.8
2017-12-27T10:32:21.939Z,1.89
2017-12-27T10:33:22.058Z,1.83
2017-12-27T10:34:22.091Z,1.84
2017-12-27T10:35:22.028Z,1.9
2017-12-27T10:36:21.949Z,1.83
2017-12-27T10:37:22.012Z,1.77
2017-12-27T10:38:21.994Z,1.9
2017-12-27T10:39:22.019Z,1.9
2017-12-27T10:40:22.122Z,1.87
2017-12-27T10:41:22.020Z,1.86
2017-12-27T10:42:22.042Z,1.99
2017-12-27T10:43:22.107Z,2.03
2017-12-27T10:44:21.965Z,2.03
2017-12-27T10:45:22.182Z,1.99
2017-12-27T10:46:22.142Z,1.84
2017-12-27T10:47:22.145Z,1.94
2017-12-27T10:48:22.068Z,1.96
2017-12-27T10:49:22.053Z,2.01
2017-12-27T10:50:22.024Z,1.87
2017-12-27T10:51:22.083Z,1.92
2017-12-27T10:52:22.090Z,1.9
2017-12-27T10:53:22.134Z,1.97
2017-12-27T10:54:22.139Z,1.84
2017-12-27T10:55:22.160Z,2.01
2017-12-27T10:56:22.005Z,1.83
2017-12-27T10:57:22.116Z,1.85
2017-12-27T10:58:22.198Z,2.01
2017-12-27T10:59:22.241Z,1.94
2017-12-27T11:00:22.094Z,1.73
2017-12-27T11:01:22.170Z,1.84
2017-12-27T11:02:22.126Z,1.89
2017-12-27T11:03:22.161Z,1.78
2017-12-27T11:04:22.136Z,1.76
2017-12-27T11:05:22.149Z,1.75
2017-12-27T11:06:22.296Z,1.9
2017-12-27T11:07:22.174Z,1.78
2017-12-27T11:08:22.053Z,1.78
2017-12-27T11:09:22.150Z,1.91
2017-12-27T11:10:22.059Z,1.98
2017-12-27T11:11:22.096Z,1.9
2017-12-27T11:12:22.102Z,1.88
2017-12-27T11:13:22.114Z,1.89
2017-12-27T11:14:22.152Z,1.99
2017-12-27T11:15:22.152Z,1.93
2017-12-27T11:16:22.221Z,2
2017-12-27T11:17:22.057Z,2.01
2017-12-27T11:18:22.174Z,2.01
2017-12-27T11:19:22.083Z,2.09
2017-12-27T11:20:22.157Z,2.13
2017-12-27T11:21:22.195Z,2.04
2017-12-27T11:22:22.056Z,2.05
2017-12-27T11:23:22.089Z,2.04
2017-12-27T11:24:22.217Z,2.11
2017-12-27T11:25:22.081Z,2.04
2017-12-27T11:26:22.274Z,2.1
2017-12-27T11:27:22.100Z,2.09
2017-12-27T11:28:22.010Z,2.12
2017-12-27T11:29:22.118Z,2.07
2017-12-27T11:30:22.261Z,2.03
2017-12-27T11:31:22.222Z,2.11
2017-12-27T11:32:22.109Z,2.15
2017-12-27T11:33:22.199Z,2.18
2017-12-27T11:34:22.206Z,2.2
2017-12-27T11:35:22.106Z,2.19
2017-12-27T11:36:22.206Z,2.23
2017-12-27T11:37:22.300Z,2.13
2017-12-27T11:38:22.109Z,2.22
2017-12-27T11:39:22.075Z,2.16
2017-12-27T11:40:22.179Z,2.24
2017-12-27T11:41:22.230Z,2.25
2017-12-27T11:42:22.220Z,2.13
2017-12-27T11:43:22.150Z,2.15
2017-12-27T11:44:22.157Z,2.13
2017-12-27T12:39:22.547Z,2.79
2017-12-27T12:40:22.525Z,2.63
2017-12-27T12:41:22.428Z,2.66
2017-12-27T12:42:22.528Z,2.59
2017-12-27T12:43:22.643Z,2.69
2017-12-27T12:44:24.891Z,2.58
2017-12-27T12:45:22.540Z,2.6
2017-12-27T12:46:22.446Z,2.67
2017-12-27T12:47:22.454Z,2.62
2017-12-27T12:48:22.544Z,2.71
2017-12-27T12:49:22.351Z,2.74
2017-12-27T12:50:22.436Z,2.76
2017-12-27T12:51:22.490Z,2.7
2017-12-27T12:52:22.516Z,2.8
2017-12-27T12:53:22.442Z,2.75
2017-12-27T12:54:22.622Z,2.77
2017-12-27T12:55:22.357Z,2.92
2017-12-27T12:56:22.527Z,2.95
2017-12-27T12:57:22.556Z,3.03
2017-12-27T12:58:22.430Z,2.93
2017-12-27T12:59:22.472Z,2.92
2017-12-27T13:00:22.824Z,2.82
2017-12-27T13:01:22.572Z,2.99
2017-12-27T13:02:22.501Z,3.02
2017-12-27T13:03:23.510Z,2.91
2017-12-27T13:04:22.497Z,3
2017-12-27T13:05:22.604Z,3.16
2017-12-27T13:06:22.518Z,3.11
2017-12-27T13:07:22.475Z,3.05
2017-12-27T13:08:22.483Z,3.24
2017-12-27T13:09:22.594Z,3.04
2017-12-27T13:10:22.394Z,3.14
2017-12-27T13:11:22.628Z,3.17
2017-12-27T13:12:22.552Z,3.17
2017-12-27T13:13:23.212Z,3.23
2017-12-27T13:14:23.432Z,3.28
2017-12-27T13:15:23.338Z,3.35
2017-12-27T13:16:22.488Z,3.29
2017-12-27T13:17:22.457Z,3.3
2017-12-27T13:18:22.608Z,3.36
2017-12-27T13:19:22.397Z,3.45
2017-12-27T13:20:22.488Z,3.44
2017-12-27T13:21:22.714Z,3.39
2017-12-27T13:22:22.499Z,3.37
2017-12-27T13:23:22.455Z,3.44
2017-12-27T13:24:22.454Z,3.39
2017-12-27T13:25:22.533Z,3.43
2017-12-27T13:26:22.720Z,3.53
2017-12-27T13:27:22.538Z,3.52
2017-12-27T13:28:22.920Z,3.56
2017-12-27T13:29:22.617Z,3.56
2017-12-27T13:30:22.543Z,3.42
2017-12-27T13:31:22.544Z,3.54
2017-12-27T13:32:22.472Z,3.5
2017-12-27T13:33:22.696Z,3.43
2017-12-27T13:34:22.766Z,3.52
2017-12-27T13:35:22.541Z,3.61
2017-12-27T13:36:23.749Z,3.59
2017-12-27T13:37:22.633Z,3.57
2017-12-27T13:38:22.484Z,3.58
2017-12-27T13:39:22.479Z,3.58
2017-12-27T13:40:22.583Z,3.66
2017-12-27T13:41:22.563Z,3.57
2017-12-27T13:42:22.778Z,3.61
2017-12-27T13:43:22.519Z,3.62
2017-12-27T13:44:22.457Z,3.62
2017-12-27T13:45:22.675Z,3.62
2017-12-27T13:46:22.496Z,3.6
2017-12-27T13:47:22.793Z,3.6
2017-12-27T13:48:22.655Z,3.57
2017-12-27T13:49:22.673Z,3.57
2017-12-27T13:50:22.602Z,3.55
2017-12-27T13:51:26.289Z,3.55
2017-12-27T13:52:22.598Z,3.54
2017-12-27T13:53:22.519Z,3.53
2017-12-27T13:54:22.778Z,3.51
2017-12-27T13:55:22.511Z,3.51
2017-12-27T13:56:22.596Z,3.46
2017-12-27T13:57:22.648Z,3.51
2017-12-27T13:58:22.625Z,3.43
2017-12-27T13:59:22.762Z,3.45
2017-12-27T14:00:22.662Z,3.41
2017-12-27T14:01:22.730Z,3.41
2017-12-27T14:02:22.626Z,3.4
2017-12-27T14:03:22.697Z,3.37
2017-12-27T14:04:23.237Z,3.45
2017-12-27T14:05:23.750Z,3.38
2017-12-27T14:06:22.840Z,3.35
2017-12-27T14:07:23.721Z,3.33
2017-12-27T14:08:22.645Z,3.38
2017-12-27T14:09:22.790Z,3.35
2017-12-27T14:10:22.613Z,3.36
2017-12-27T14:11:23.953Z,3.3
2017-12-27T14:12:22.730Z,3.25
2017-12-27T14:13:22.637Z,3.22
2017-12-27T14:14:22.744Z,3.19
2017-12-27T14:15:22.846Z,3.16
2017-12-27T14:16:23.378Z,3.2
2017-12-27T14:17:22.572Z,3.22
2017-12-27T14:18:22.802Z,3.08
2017-12-27T14:19:22.679Z,3.14
2017-12-27T14:20:22.793Z,3.12
2017-12-27T14:21:22.732Z,3.12
2017-12-27T14:22:22.739Z,3